Flight Track Log - Related Links

Times and Time Zones

All times are in EDT time to prevent confusion due to time zone crossing. See the N7339F flight status page for this flight to view local times or setup timezone preferences in your user account.

Time Position Orientation Groundspeed Altitude Reporting Facility
EDT Latitude Longitude Course Direction KTS MPH feet Rate Location/Type
Thu 01:40:21 PM 41.0286 -85.6903 99° East 93 107 3,500  Level Cleveland Center
Thu 01:41:25 PM 41.0264 -85.6500 94° East 93 107 3,600 48 Climbing Chicago Center
Thu 01:42:27 PM 41.0250 -85.6156 93° East 94 108 3,600  Level Chicago Center
Thu 01:43:29 PM 41.0228 -85.5803 95° East 95 109 3,600  Level Chicago Center
Thu 01:44:00 PM 41.2389 -85.5508 99° East  Level FlightAware
Thu 01:44:31 PM 41.0211 -85.5436 93° East 97 112 3,600  Level Chicago Center
Thu 01:45:00 PM 41.2328 -85.5026 99° East  Level FlightAware
Thu 01:45:33 PM 41.0186 -85.5078 95° East 98 113 3,600  Level Chicago Center
Thu 01:46:36 PM 41.0175 -85.4636 92° East 99 114 3,600  Level Chicago Center
Thu 01:47:38 PM 41.0139 -85.4272 97° East 100 115 3,600  Level Chicago Center
Thu 01:48:40 PM 41.0125 -85.3919 93° East 99 114 3,600  Level Chicago Center
Thu 01:49:42 PM 41.0111 -85.3575 93° East 96 110 3,600  Level Chicago Center
Thu 01:50:44 PM 41.0097 -85.3231 93° East 96 110 3,600  Level Chicago Center
Thu 01:51:46 PM 41.0072 -85.2875 95° East 96 110 3,600  Level Chicago Center
Thu 01:52:48 PM 41.0058 -85.2447 92° East 96 110 3,600  Level Chicago Center
Thu 01:53:50 PM 41.0033 -85.2086 95° East 97 112 3,600  Level Chicago Center
Thu 01:54:52 PM 41.0008 -85.1719 95° East 99 114 3,600  Level Chicago Center
Thu 01:55:55 PM 40.9983 -85.1356 95° East 99 114 3,600  Level Chicago Center
Thu 01:56:57 PM 40.9967 -85.0994 93° East 99 114 3,600  Level Chicago Center
Thu 01:57:59 PM 40.9947 -85.0553 93° East 99 114 3,600  Level Chicago Center
Thu 01:59:01 PM 40.9931 -85.0194 94° East 99 114 3,600  Level Chicago Center
Thu 02:00:03 PM 40.9903 -84.9817 96° East 102 117 3,600  Level Chicago Center
Thu 02:01:05 PM 40.9886 -84.9458 94° East 100 115 3,600  Level Chicago Center
Thu 02:02:07 PM 40.9861 -84.9086 95° East 100 115 3,600 -48 Level Chicago Center
Thu 02:03:09 PM 40.9842 -84.8719 94° East 101 116 3,500 -48 Descending Chicago Center
Thu 02:04:11 PM 40.9819 -84.8267 94° East 102 117 3,500  Level Chicago Center
Thu 02:05:14 PM 40.9789 -84.7883 96° East 103 119 3,500  Level Chicago Center
Thu 02:06:16 PM 40.9775 -84.7506 93° East 103 119 3,500  Level Chicago Center
Thu 02:07:18 PM 40.9750 -84.7133 95° East 103 119 3,500  Level Chicago Center
Thu 02:08:20 PM 40.9733 -84.6781 94° East 100 115 3,500  Level Chicago Center
Thu 02:09:22 PM 40.9706 -84.6325 95° East 101 116 3,500  Level Chicago Center
Thu 02:10:24 PM 40.9681 -84.5947 95° East 103 119 3,500  Level Chicago Center
Thu 02:11:26 PM 40.9664 -84.5606 94° East 99 114 3,500  Level Chicago Center
Thu 02:12:28 PM 40.9650 -84.5281 93° East 94 108 3,500  Level Chicago Center
Thu 02:13:30 PM 40.9619 -84.4931 97° East 94 108 3,500  Level Chicago Center
Thu 02:14:33 PM 40.9608 -84.4603 93° East 92 106 3,500  Level Chicago Center
Thu 02:15:35 PM 40.9575 -84.4181 96° East 95 109 3,500  Level Chicago Center
Thu 02:16:37 PM 40.9567 -84.3836 92° East 94 108 3,500  Level Chicago Center
Thu 02:17:39 PM 40.9536 -84.3506 97° East 93 107 3,500  Level Chicago Center
Thu 02:18:41 PM 40.9508 -84.3139 96° East 96 110 3,500  Level Chicago Center
Thu 02:19:43 PM 40.9489 -84.2739 94° East 96 110 3,500  Level Chicago Center
Thu 02:22:00 PM 40.9459 -84.2210 94° East  Level FlightAware
Thu 02:29:00 PM 40.9296 -83.9363 94° East  Level FlightAware
Thu 02:30:00 PM 40.9272 -83.8956 94° East  Level FlightAware
Thu 02:31:00 PM 40.9248 -83.8549 94° East  Level FlightAware
Thu 02:32:00 PM 40.9224 -83.8143 94° East  Level FlightAware
Thu 02:33:00 PM 40.9199 -83.7736 95° East  Level FlightAware
Thu 02:34:00 PM 40.9175 -83.7330 95° East  Level FlightAware
Thu 02:35:00 PM 40.9150 -83.6923 95° East  Level FlightAware
Thu 02:36:00 PM 40.9125 -83.6517 95° East  Level FlightAware
Thu 02:37:00 PM 40.9100 -83.6111 95° East  Level FlightAware
Thu 02:53:48 PM 40.8639 -83.0586 95° East 94 108 3,500  Level Cleveland Center
Thu 02:54:50 PM 40.8603 -83.0217 97° East 96 110 3,500  Level Cleveland Center
Thu 02:55:53 PM 40.8564 -82.9767 97° East 101 116 3,500  Level Cleveland Center
Thu 02:56:55 PM 40.8511 -82.9403 101° East 101 116 3,500  Level Cleveland Center
Thu 02:57:57 PM 40.8511 -82.9033 90° East 101 116 3,500  Level Cleveland Center
Thu 02:58:59 PM 40.8483 -82.8672 96° East 99 114 3,500  Level Cleveland Center
Thu 03:00:02 PM 40.8458 -82.8289 95° East 101 116 3,500 48 Level Cleveland Center
Thu 03:01:04 PM 40.8425 -82.7911 97° East 103 119 3,600  Climbing Cleveland Center
Thu 03:02:06 PM 40.8381 -82.7481 98° East 101 116 3,500 -48 Descending Cleveland Center
Thu 03:03:08 PM 40.8358 -82.7111 95° East 101 116 3,500 -194 Level Cleveland Center
Thu 03:04:10 PM 40.8314 -82.6747 99° East 100 115 3,100 -336 Descending Cleveland Center
Thu 03:05:13 PM 40.8261 -82.6350 100° East 104 120 2,800 -288 Descending Cleveland Center
Thu 03:06:15 PM 40.8222 -82.5983 98° East 104 120 2,500 -242 Descending Cleveland Center
Thu 03:07:17 PM 40.8194 -82.5611 96° East 102 117 2,300 -145 Descending Cleveland Center
Thu 03:08:19 PM 40.8092 -82.5267 112° Southeast 106 122 2,200 -145 Descending Cleveland Center
Thu 03:09:21 PM 40.7986 -82.5014 119° Southeast 95 109 2,000 -194 Descending Cleveland Center
Thu 03:10:23 PM 40.8075 -82.4875 50° Northeast 86 99 1,800 -194 Descending Cleveland Center

Login

Don't have an account? Register now (free) for customized features, flight alerts, and more!